Capitol Logistics 441


KSLC
Salt Lake City International Airport
Salt Lake City, Utah, US
KRFD
Chicago/Rockford International Airport
Rockford, Illinois, US

Activity Log

Date Flight Route Aircraft Duration
02/11/2020 CPX441 RUGGD1 OCS KURSE Q122 FOD BHAWK RFD B738 2h 35m
06/16/2019 CPX441 RUGGD1 OCS KURSE Q122 FOD BHAWK RFD B752 2h 35m
02/25/2019 CPX441 RUGGD1 OCS KURSE Q122 FOD BHAWK RFD B752 2h 14m
02/04/2019 CPX441 RUGGD1 OCS KURSE Q122 FOD BHAWK RFD B752 2h 27m

Route Details

Aircraft Information
Primary: Boeing 757-200SF
Backup: Boeing 737-800BCF
Route Data
Distance: 1031nm
Sched. Duration: 2h 20m
Avg. Duration: 2h 28m (+8m)
Times Flown: 4
Recm'd Route: RUGGD1 OCS KURSE Q122 FOD BHAWK RFD
Planned Altitude: 37,000ft
Origin Wx: KSLC 240754Z 28006KT 1SM R16L/P6000FT -SN BR FEW005 BKN015 OVC020 M02/M02 A2988 RMK AO2 SFC VIS 1 1/4 SLP128 P0001 T10221022 $
Dest. Wx: KRFD 240805Z 15008KT 1 1/2SM -SN OVC020 M02/M07 A3015 RMK AO2 TWR VIS 2 SNB0757 P0001 T10221067
Notes:

Financial History
Total Freight: 190,108lbs
Average Load: 47,527lbs/flt
Fuel Used: 63,161lbs
Avg. Fuel Used: 15,790lbs/flt
Fuel Expense: $54,318
Avg. Fuel Expense: $13,580
Avg. Fuel Cost: $0.86/lbs
Total Gross Income: $249,632
Pilot Pay: $926
Total Expenses: $27,168
Total Revenue: $165,779
Average Revenue: $62,408.07